createdAt,value
2016-12-31T00:00:22.351Z,0
2016-12-31T00:01:28.515Z,0
2016-12-31T00:02:33.741Z,0
2016-12-31T00:03:38.979Z,0
2016-12-31T00:04:45.205Z,0
2016-12-31T00:05:50.398Z,0
2016-12-31T00:06:56.562Z,0
2016-12-31T00:08:01.762Z,0
2016-12-31T00:09:05.993Z,0
2016-12-31T00:10:11.192Z,0
2016-12-31T00:11:16.394Z,0
2016-12-31T00:12:22.552Z,0
2016-12-31T00:13:28.721Z,0
2016-12-31T00:14:33.926Z,0
2016-12-31T00:15:39.185Z,0
2016-12-31T00:16:43.380Z,0
2016-12-31T00:17:48.535Z,0
2016-12-31T00:18:53.741Z,0
2016-12-31T00:19:59.954Z,0
2016-12-31T00:21:04.186Z,0
2016-12-31T00:22:10.370Z,0
2016-12-31T00:23:15.537Z,0
2016-12-31T00:24:20.730Z,0
2016-12-31T00:25:26.893Z,0
2016-12-31T00:26:32.060Z,0
2016-12-31T00:27:38.230Z,0
2016-12-31T00:28:43.490Z,0
2016-12-31T00:29:48.667Z,0
2016-12-31T00:30:53.829Z,0
2016-12-31T00:32:00.016Z,0
2016-12-31T00:33:05.190Z,0
2016-12-31T00:34:10.389Z,0
2016-12-31T00:35:16.555Z,0
2016-12-31T00:36:20.762Z,0
2016-12-31T00:37:24.991Z,0
2016-12-31T00:38:29.220Z,0
2016-12-31T00:39:34.491Z,0
2016-12-31T00:40:39.790Z,0
2016-12-31T00:41:46.016Z,0
2016-12-31T00:42:52.184Z,0
2016-12-31T00:43:55.410Z,0
2016-12-31T00:45:00.603Z,0
2016-12-31T00:46:06.766Z,0
2016-12-31T00:47:11.956Z,0
2016-12-31T00:48:18.134Z,0
2016-12-31T00:49:23.334Z,0
2016-12-31T00:50:28.523Z,0
2016-12-31T00:51:33.795Z,0
2016-12-31T00:52:38.062Z,0
2016-12-31T00:53:43.240Z,0
2016-12-31T00:54:49.404Z,0
2016-12-31T00:55:52.640Z,0
2016-12-31T00:56:58.792Z,0
2016-12-31T00:58:04.956Z,0
2016-12-31T00:59:10.166Z,0
2016-12-31T01:00:15.364Z,0
2016-12-31T01:01:19.711Z,0
2016-12-31T01:02:25.882Z,0
2016-12-31T01:03:31.079Z,0
2016-12-31T01:04:37.238Z,0
2016-12-31T01:05:43.410Z,0
2016-12-31T01:06:48.660Z,0
2016-12-31T01:07:54.891Z,0
2016-12-31T01:09:01.055Z,0
2016-12-31T01:10:06.219Z,0
2016-12-31T01:11:11.424Z,0
2016-12-31T01:12:17.713Z,0
2016-12-31T01:13:21.548Z,0
2016-12-31T01:14:27.711Z,0
2016-12-31T01:15:33.871Z,0
2016-12-31T01:16:40.090Z,0
2016-12-31T01:17:45.294Z,0
2016-12-31T01:18:49.507Z,0
2016-12-31T01:19:54.710Z,0
2016-12-31T01:20:59.008Z,0
2016-12-31T01:22:05.213Z,0
2016-12-31T01:23:11.443Z,0
2016-12-31T01:24:15.798Z,0
2016-12-31T01:25:20.026Z,0
2016-12-31T01:26:26.142Z,0
2016-12-31T01:27:31.367Z,0
2016-12-31T01:28:36.565Z,0
2016-12-31T01:29:41.838Z,0
2016-12-31T01:30:48.057Z,0
2016-12-31T01:31:53.220Z,0
2016-12-31T01:32:58.377Z,0
2016-12-31T01:34:03.682Z,0
2016-12-31T01:35:08.871Z,0
2016-12-31T01:36:14.066Z,0
2016-12-31T01:37:20.232Z,0
2016-12-31T01:38:25.522Z,0
2016-12-31T01:40:37.903Z,0
2016-12-31T01:41:44.082Z,0
2016-12-31T01:42:48.314Z,0
2016-12-31T01:43:54.489Z,0
2016-12-31T01:44:59.737Z,0
2016-12-31T01:46:04.929Z,0
2016-12-31T01:47:08.191Z,0
2016-12-31T01:48:13.433Z,0
2016-12-31T01:49:16.677Z,0
2016-12-31T01:50:20.942Z,0
2016-12-31T01:51:26.126Z,0
2016-12-31T01:52:32.282Z,0
2016-12-31T01:53:38.443Z,0
2016-12-31T01:54:43.678Z,0
2016-12-31T01:55:49.985Z,0
2016-12-31T01:56:56.153Z,0
2016-12-31T01:58:02.310Z,0
2016-12-31T01:59:07.543Z,0
2016-12-31T02:00:11.986Z,0
2016-12-31T02:01:17.188Z,0
2016-12-31T02:02:23.490Z,0
2016-12-31T02:03:29.652Z,0
2016-12-31T02:04:35.861Z,0
2016-12-31T02:05:41.056Z,0
2016-12-31T02:06:47.305Z,0
2016-12-31T02:07:50.535Z,0
2016-12-31T02:08:55.786Z,0
2016-12-31T02:10:01.215Z,0
2016-12-31T02:11:06.404Z,0
2016-12-31T02:12:11.595Z,0
2016-12-31T02:13:16.788Z,0
2016-12-31T02:14:22.027Z,0
2016-12-31T02:15:26.218Z,0
2016-12-31T02:16:31.427Z,0
2016-12-31T02:17:37.626Z,0
2016-12-31T02:18:42.820Z,0
2016-12-31T02:19:48.031Z,0
2016-12-31T02:20:53.254Z,0
2016-12-31T02:21:58.443Z,0
2016-12-31T02:23:04.601Z,0
2016-12-31T02:24:10.765Z,0
2016-12-31T02:25:15.941Z,0
2016-12-31T02:26:22.099Z,0
2016-12-31T02:27:27.274Z,0
2016-12-31T02:28:31.491Z,0
2016-12-31T02:29:37.737Z,0
2016-12-31T02:30:43.865Z,0
2016-12-31T02:31:50.029Z,0
2016-12-31T02:32:56.191Z,0
2016-12-31T02:34:02.356Z,0
2016-12-31T02:35:07.553Z,0
2016-12-31T02:36:10.801Z,0
2016-12-31T02:37:14.070Z,0
2016-12-31T02:38:19.236Z,0
2016-12-31T02:39:24.434Z,0
2016-12-31T02:40:30.596Z,0
2016-12-31T02:41:35.829Z,0
2016-12-31T02:42:41.020Z,0
2016-12-31T02:43:47.186Z,0
2016-12-31T02:44:53.351Z,0
2016-12-31T02:45:58.549Z,0
2016-12-31T02:47:04.713Z,0
2016-12-31T02:48:09.949Z,0
2016-12-31T02:49:15.117Z,0
2016-12-31T02:50:21.283Z,0
2016-12-31T02:51:24.510Z,0
2016-12-31T02:52:29.708Z,0
2016-12-31T02:53:35.916Z,0
2016-12-31T02:54:42.043Z,0
2016-12-31T02:55:47.235Z,0
2016-12-31T02:56:53.386Z,0
2016-12-31T02:57:58.578Z,0
2016-12-31T02:59:03.778Z,0
2016-12-31T03:00:08.961Z,0
2016-12-31T03:01:14.236Z,0
2016-12-31T03:02:19.463Z,0
2016-12-31T03:03:24.687Z,0
2016-12-31T03:04:29.885Z,0
2016-12-31T03:05:34.122Z,0
2016-12-31T03:06:40.316Z,0
2016-12-31T03:07:45.516Z,0
2016-12-31T03:08:50.705Z,0
2016-12-31T03:09:56.869Z,0
2016-12-31T03:11:03.040Z,0
2016-12-31T03:12:09.197Z,0
2016-12-31T03:13:14.396Z,0
2016-12-31T03:14:20.553Z,0
2016-12-31T03:15:23.855Z,0
2016-12-31T03:16:27.610Z,0
2016-12-31T03:17:33.090Z,0
2016-12-31T03:18:37.303Z,0
2016-12-31T03:19:43.533Z,0
2016-12-31T03:20:47.793Z,0
2016-12-31T03:21:52.954Z,0
2016-12-31T03:22:59.123Z,0
2016-12-31T03:24:05.282Z,0
2016-12-31T03:25:10.478Z,0
2016-12-31T03:26:14.767Z,0
2016-12-31T03:27:19.960Z,0
2016-12-31T03:28:24.992Z,0
2016-12-31T03:29:29.448Z,0
2016-12-31T03:30:34.644Z,0
2016-12-31T03:31:39.851Z,0
2016-12-31T03:32:45.009Z,0
2016-12-31T03:33:50.205Z,0
2016-12-31T03:34:55.424Z,0
2016-12-31T03:36:00.617Z,0
2016-12-31T03:37:05.809Z,0
2016-12-31T03:38:12.011Z,0
2016-12-31T03:39:17.163Z,0
2016-12-31T03:40:22.456Z,0
2016-12-31T03:41:26.763Z,0
2016-12-31T03:42:32.891Z,0
2016-12-31T03:43:37.124Z,0
2016-12-31T03:44:43.287Z,0
2016-12-31T03:45:49.661Z,0
2016-12-31T03:46:54.852Z,0
2016-12-31T03:48:00.049Z,0
2016-12-31T03:49:06.221Z,0
2016-12-31T03:50:12.393Z,0
2016-12-31T03:51:17.583Z,0
2016-12-31T03:52:23.794Z,0
2016-12-31T03:53:28.934Z,0
2016-12-31T03:54:34.128Z,0
2016-12-31T03:55:39.373Z,0
2016-12-31T03:56:45.591Z,0
2016-12-31T03:57:51.755Z,0
2016-12-31T03:58:56.958Z,0
2016-12-31T04:00:01.194Z,0
2016-12-31T04:01:07.362Z,0
2016-12-31T04:02:11.665Z,0
2016-12-31T04:03:16.865Z,0
2016-12-31T04:04:22.060Z,0
2016-12-31T04:05:28.218Z,0
2016-12-31T04:06:32.450Z,0
2016-12-31T04:07:38.607Z,0
2016-12-31T04:08:44.877Z,0
2016-12-31T04:09:49.070Z,0
2016-12-31T04:10:54.238Z,0
2016-12-31T04:12:00.414Z,0
2016-12-31T04:13:05.583Z,0
2016-12-31T04:14:10.785Z,0
2016-12-31T04:15:16.951Z,0
2016-12-31T04:16:23.109Z,0
2016-12-31T04:17:29.272Z,0
2016-12-31T04:18:33.511Z,0
2016-12-31T04:19:39.815Z,0
2016-12-31T04:20:46.070Z,0
2016-12-31T04:21:49.296Z,0
2016-12-31T04:22:53.545Z,0
2016-12-31T04:23:58.731Z,0
2016-12-31T04:25:03.965Z,0
2016-12-31T04:26:07.188Z,0
2016-12-31T04:27:09.477Z,0
2016-12-31T04:28:13.696Z,0
2016-12-31T04:29:19.856Z,0
2016-12-31T04:30:24.130Z,0
2016-12-31T04:31:29.342Z,0
2016-12-31T04:32:34.538Z,0
2016-12-31T04:33:39.734Z,0
2016-12-31T04:34:42.995Z,0
2016-12-31T04:35:49.193Z,0
2016-12-31T04:36:54.430Z,0
2016-12-31T04:38:00.557Z,0
2016-12-31T04:39:06.719Z,0
2016-12-31T04:40:12.879Z,0
2016-12-31T04:41:19.040Z,0
2016-12-31T04:42:24.260Z,0
2016-12-31T04:43:29.475Z,0
2016-12-31T04:44:32.813Z,0
2016-12-31T04:45:35.101Z,0
2016-12-31T04:46:39.273Z,0
2016-12-31T04:47:45.466Z,0
2016-12-31T04:48:50.656Z,0
2016-12-31T04:49:53.889Z,0
2016-12-31T04:50:59.101Z,0
2016-12-31T04:52:04.340Z,0
2016-12-31T04:53:10.461Z,0
2016-12-31T04:54:15.649Z,0
2016-12-31T04:55:21.805Z,0
2016-12-31T04:56:27.966Z,0
2016-12-31T04:57:31.225Z,0
2016-12-31T04:58:37.386Z,0
2016-12-31T04:59:43.648Z,0
2016-12-31T05:00:48.842Z,0
2016-12-31T05:01:54.050Z,0
2016-12-31T05:02:59.240Z,0
2016-12-31T05:04:04.463Z,0
2016-12-31T05:05:10.587Z,0
2016-12-31T05:06:16.749Z,0
2016-12-31T05:07:22.916Z,0
2016-12-31T05:08:28.110Z,0
2016-12-31T05:09:33.314Z,0
2016-12-31T05:10:39.475Z,0
2016-12-31T05:11:44.784Z,0
2016-12-31T05:12:50.946Z,0
2016-12-31T05:13:56.175Z,0
2016-12-31T05:15:02.337Z,0
2016-12-31T05:16:08.492Z,0
2016-12-31T05:17:13.736Z,0
2016-12-31T05:18:18.966Z,0
2016-12-31T05:19:25.116Z,0
2016-12-31T05:20:30.327Z,0
2016-12-31T05:21:36.480Z,0
2016-12-31T05:22:42.648Z,0
2016-12-31T05:23:46.872Z,0
2016-12-31T05:24:52.125Z,0
2016-12-31T05:25:57.321Z,0
2016-12-31T05:27:02.514Z,0
2016-12-31T05:28:07.742Z,0
2016-12-31T05:29:13.920Z,0
2016-12-31T05:30:20.102Z,0
2016-12-31T05:31:26.229Z,0
2016-12-31T05:32:31.429Z,0
2016-12-31T05:33:36.616Z,0
2016-12-31T05:34:39.878Z,0
2016-12-31T05:35:45.074Z,0
2016-12-31T05:36:51.228Z,0
2016-12-31T05:37:57.411Z,0
2016-12-31T05:39:03.573Z,0
2016-12-31T05:40:09.733Z,0
2016-12-31T05:41:15.028Z,0
2016-12-31T05:42:19.218Z,0
2016-12-31T05:43:24.487Z,0
2016-12-31T05:44:27.724Z,0
2016-12-31T05:45:33.885Z,0
2016-12-31T05:46:40.059Z,0
2016-12-31T05:47:46.218Z,0
2016-12-31T05:48:51.410Z,0
2016-12-31T05:51:03.733Z,0
2016-12-31T05:52:08.917Z,0
2016-12-31T05:53:14.114Z,0
2016-12-31T05:54:20.275Z,0
2016-12-31T05:55:25.467Z,0
2016-12-31T05:56:30.656Z,0
2016-12-31T05:57:34.887Z,0
2016-12-31T05:58:41.062Z,0
2016-12-31T05:59:46.304Z,0
2016-12-31T06:00:52.433Z,0
2016-12-31T06:01:57.697Z,0
2016-12-31T06:03:02.867Z,0
2016-12-31T06:04:09.034Z,0
2016-12-31T06:05:14.354Z,0
2016-12-31T06:06:20.533Z,0
2016-12-31T06:07:25.724Z,0
2016-12-31T06:08:31.896Z,0
2016-12-31T06:09:36.181Z,0
2016-12-31T06:10:42.299Z,0
2016-12-31T06:11:48.509Z,0
2016-12-31T06:12:54.491Z,0
2016-12-31T06:14:00.645Z,0
2016-12-31T06:15:05.876Z,0
2016-12-31T06:16:11.766Z,0
2016-12-31T06:17:16.976Z,0
2016-12-31T06:18:22.138Z,0
2016-12-31T06:19:27.378Z,0
2016-12-31T06:20:32.551Z,0
2016-12-31T06:21:37.727Z,0
2016-12-31T06:22:43.883Z,0
2016-12-31T06:23:49.091Z,0
2016-12-31T06:24:53.256Z,0
2016-12-31T06:25:58.450Z,0
2016-12-31T06:27:03.678Z,0
2016-12-31T06:28:08.884Z,0
2016-12-31T06:29:15.045Z,0
2016-12-31T06:30:19.276Z,0
2016-12-31T06:31:24.469Z,0
2016-12-31T06:32:30.623Z,0
2016-12-31T06:33:35.814Z,0
2016-12-31T06:34:40.058Z,0
2016-12-31T06:35:44.292Z,0
2016-12-31T06:36:48.526Z,0
2016-12-31T06:37:53.687Z,0
2016-12-31T06:38:59.848Z,0
2016-12-31T06:40:04.040Z,0
2016-12-31T06:41:09.233Z,0
2016-12-31T06:42:14.439Z,0
2016-12-31T06:43:20.594Z,0
2016-12-31T06:44:23.856Z,0
2016-12-31T06:45:30.047Z,0
2016-12-31T06:46:36.205Z,0
2016-12-31T06:47:40.440Z,0
2016-12-31T06:48:45.639Z,0
2016-12-31T06:49:50.835Z,0
2016-12-31T06:50:56.040Z,0
2016-12-31T06:52:00.244Z,0
2016-12-31T06:53:05.444Z,0
2016-12-31T06:54:10.643Z,0
2016-12-31T06:55:16.801Z,0
2016-12-31T06:56:21.991Z,0
2016-12-31T06:57:27.191Z,0
2016-12-31T06:58:33.352Z,4
2016-12-31T06:59:38.571Z,0
2016-12-31T07:00:44.732Z,4
2016-12-31T07:01:48.922Z,0
2016-12-31T07:02:55.087Z,4
2016-12-31T07:04:01.323Z,4
2016-12-31T07:05:07.481Z,4
2016-12-31T07:06:12.754Z,4
2016-12-31T07:07:15.985Z,4
2016-12-31T07:08:22.160Z,4
2016-12-31T07:09:28.311Z,8
2016-12-31T07:10:32.538Z,8
2016-12-31T07:11:37.734Z,8
2016-12-31T07:12:43.897Z,8
2016-12-31T07:13:49.077Z,12
2016-12-31T07:14:53.316Z,12
2016-12-31T07:15:57.531Z,12
2016-12-31T07:17:02.719Z,16
2016-12-31T07:18:08.887Z,20
2016-12-31T07:19:14.099Z,20
2016-12-31T07:20:19.292Z,24
2016-12-31T07:21:25.474Z,28
2016-12-31T07:22:30.673Z,32
2016-12-31T07:23:34.902Z,36
2016-12-31T07:24:40.099Z,40
2016-12-31T07:25:45.296Z,48
2016-12-31T07:26:49.634Z,48
2016-12-31T07:27:55.775Z,56
2016-12-31T07:29:00.962Z,60
2016-12-31T07:30:07.124Z,68
2016-12-31T07:31:13.300Z,72
2016-12-31T07:32:17.520Z,84
2016-12-31T07:33:21.846Z,92
2016-12-31T07:34:27.142Z,96
2016-12-31T07:35:31.372Z,116
2016-12-31T07:36:36.552Z,120
2016-12-31T07:37:42.710Z,132
2016-12-31T07:38:48.616Z,148
2016-12-31T07:39:54.780Z,160
2016-12-31T07:40:59.957Z,164
2016-12-31T07:42:06.123Z,188
2016-12-31T07:43:12.279Z,188
2016-12-31T07:44:16.563Z,208
2016-12-31T07:45:20.788Z,224
2016-12-31T07:46:26.956Z,216
2016-12-31T07:47:33.165Z,244
2016-12-31T07:48:39.286Z,260
2016-12-31T07:49:44.485Z,268
2016-12-31T07:50:49.655Z,284
2016-12-31T07:51:54.818Z,316
2016-12-31T07:53:00.060Z,336
2016-12-31T07:54:04.294Z,368
2016-12-31T07:55:10.451Z,348
2016-12-31T07:56:16.606Z,372
2016-12-31T07:57:22.774Z,392
2016-12-31T07:58:28.930Z,408
2016-12-31T07:59:34.186Z,424
2016-12-31T08:00:40.337Z,432
2016-12-31T08:01:44.625Z,440
2016-12-31T08:02:49.824Z,460
2016-12-31T08:03:56.054Z,492
2016-12-31T08:05:01.216Z,460
2016-12-31T08:06:07.393Z,508
2016-12-31T08:07:12.558Z,504
2016-12-31T08:08:17.753Z,504
2016-12-31T08:09:23.911Z,496
2016-12-31T08:10:30.075Z,516
2016-12-31T08:11:35.265Z,512
2016-12-31T08:12:39.465Z,580
2016-12-31T08:13:44.653Z,572
2016-12-31T08:14:48.882Z,620
2016-12-31T08:15:55.051Z,680
2016-12-31T08:17:00.250Z,716
2016-12-31T08:18:05.442Z,720
2016-12-31T08:19:09.776Z,784
2016-12-31T08:20:15.945Z,872
2016-12-31T08:21:22.114Z,880
2016-12-31T08:22:27.306Z,860
2016-12-31T08:23:32.496Z,972
2016-12-31T08:24:38.684Z,876
2016-12-31T08:25:44.843Z,936
2016-12-31T08:26:51.020Z,932
2016-12-31T08:27:57.182Z,932
2016-12-31T08:29:03.382Z,1008
2016-12-31T08:30:09.510Z,1012
2016-12-31T08:31:15.682Z,1084
2016-12-31T08:32:20.844Z,1136
2016-12-31T08:33:25.071Z,1064
2016-12-31T08:34:31.233Z,1144
2016-12-31T08:35:35.468Z,1200
2016-12-31T08:36:40.686Z,1196
2016-12-31T08:37:44.913Z,1216
2016-12-31T08:38:50.106Z,1228
2016-12-31T08:39:54.331Z,1360
2016-12-31T08:40:58.563Z,1484
2016-12-31T08:42:03.754Z,1352
2016-12-31T08:43:08.928Z,1300
2016-12-31T08:44:15.090Z,1392
2016-12-31T08:45:19.281Z,1368
2016-12-31T08:46:23.515Z,1380
2016-12-31T08:47:28.718Z,1360
2016-12-31T08:48:34.856Z,1376
2016-12-31T08:49:41.024Z,1360
2016-12-31T08:50:47.199Z,1400
2016-12-31T08:51:53.359Z,1472
2016-12-31T08:52:58.555Z,1568
2016-12-31T08:54:04.716Z,1524
2016-12-31T08:55:11.012Z,1504
2016-12-31T08:56:16.892Z,1568
2016-12-31T08:57:21.118Z,1952
2016-12-31T08:58:27.285Z,1892
2016-12-31T08:59:33.445Z,1964
2016-12-31T09:00:39.616Z,1496
2016-12-31T09:01:45.819Z,1804
2016-12-31T09:02:51.977Z,1660
2016-12-31T09:03:58.164Z,1732
2016-12-31T09:05:04.324Z,1836
2016-12-31T09:06:10.527Z,1688
2016-12-31T09:07:16.644Z,1688
2016-12-31T09:08:22.864Z,1776
2016-12-31T09:09:28.063Z,1624
2016-12-31T09:10:32.309Z,1856
2016-12-31T09:11:38.459Z,1640
2016-12-31T09:12:44.641Z,1660
2016-12-31T09:13:49.815Z,1648
2016-12-31T09:14:54.011Z,1564
2016-12-31T09:16:00.290Z,1648
2016-12-31T09:18:11.652Z,1988
2016-12-31T09:19:17.807Z,1816
2016-12-31T09:20:23.971Z,1916
2016-12-31T09:21:28.205Z,1696
2016-12-31T09:22:34.371Z,1664
2016-12-31T09:23:40.532Z,1636
2016-12-31T09:24:45.725Z,1636
2016-12-31T09:25:51.028Z,1784
2016-12-31T09:26:56.341Z,1656
2016-12-31T09:28:01.563Z,1556
2016-12-31T09:29:07.770Z,1672
2016-12-31T09:30:11.980Z,1536
2016-12-31T09:31:17.180Z,1520
2016-12-31T09:32:20.496Z,1632
2016-12-31T09:33:24.766Z,1688
2016-12-31T09:34:30.038Z,1716
2016-12-31T09:35:36.202Z,1820
2016-12-31T09:36:39.431Z,1896
2016-12-31T09:37:44.624Z,1712
2016-12-31T09:38:49.818Z,1876
2016-12-31T09:39:55.011Z,1856
2016-12-31T09:40:59.202Z,1948
2016-12-31T09:42:05.422Z,2104
2016-12-31T09:43:11.583Z,2000
2016-12-31T09:44:17.863Z,1972
2016-12-31T09:45:23.656Z,2032
2016-12-31T09:46:29.823Z,2084
2016-12-31T09:47:35.996Z,2152
2016-12-31T09:48:41.186Z,2084
2016-12-31T09:49:45.416Z,1932
2016-12-31T09:50:51.579Z,2020
2016-12-31T09:51:55.804Z,2300
2016-12-31T09:53:00.981Z,2288
2016-12-31T09:54:07.143Z,2296
2016-12-31T09:55:12.339Z,2336
2016-12-31T09:56:18.494Z,2256
2016-12-31T09:57:24.049Z,2356
2016-12-31T09:58:28.248Z,2632
2016-12-31T09:59:31.515Z,2460
2016-12-31T10:00:36.709Z,2340
2016-12-31T10:01:39.941Z,2312
2016-12-31T10:02:46.146Z,2588
2016-12-31T10:03:51.311Z,3048
2016-12-31T10:04:57.515Z,3000
2016-12-31T10:06:03.677Z,2988
2016-12-31T10:07:08.875Z,2348
2016-12-31T10:08:15.037Z,2336
2016-12-31T10:09:20.227Z,2080
2016-12-31T10:10:26.394Z,2340
2016-12-31T10:11:32.652Z,2372
2016-12-31T10:12:38.816Z,2080
2016-12-31T10:13:43.053Z,2728
2016-12-31T10:14:48.256Z,2796
2016-12-31T10:16:58.643Z,2524
2016-12-31T10:18:03.943Z,2452
2016-12-31T10:19:09.124Z,2444
2016-12-31T10:20:14.336Z,2588
2016-12-31T10:21:19.504Z,2432
2016-12-31T10:22:24.699Z,2648
2016-12-31T10:23:30.869Z,2924
2016-12-31T10:24:37.085Z,2868
2016-12-31T10:25:43.340Z,2760
2016-12-31T10:26:49.471Z,2608
2016-12-31T10:27:54.660Z,2892
2016-12-31T10:28:59.883Z,3016
2016-12-31T10:31:12.272Z,2968
2016-12-31T10:32:15.625Z,3008
2016-12-31T10:33:20.170Z,3220
2016-12-31T10:34:26.335Z,3316
2016-12-31T10:35:32.595Z,3132
2016-12-31T10:36:35.827Z,3072
2016-12-31T10:37:40.993Z,3136
2016-12-31T10:38:45.221Z,2920
2016-12-31T10:39:50.392Z,2884
2016-12-31T10:40:54.706Z,3000
2016-12-31T10:41:59.975Z,2696
2016-12-31T10:43:06.142Z,2792
2016-12-31T10:44:11.340Z,2720
2016-12-31T10:45:17.502Z,2880
2016-12-31T10:46:23.660Z,2688
2016-12-31T10:47:28.851Z,2628
2016-12-31T10:48:34.116Z,2456
2016-12-31T10:49:40.279Z,2556
2016-12-31T10:50:43.516Z,2456
2016-12-31T10:51:48.714Z,2336
2016-12-31T10:52:54.873Z,2280
2016-12-31T10:54:00.068Z,2400
2016-12-31T10:55:06.248Z,2496
2016-12-31T10:56:11.456Z,2704
2016-12-31T10:57:16.657Z,2664
2016-12-31T10:58:23.041Z,2592
2016-12-31T10:59:28.272Z,2600
2016-12-31T11:00:32.473Z,2564
2016-12-31T11:01:36.710Z,2464
2016-12-31T11:02:42.934Z,2656
2016-12-31T11:03:47.167Z,2436
2016-12-31T11:04:53.373Z,2640
2016-12-31T11:05:58.573Z,2740
2016-12-31T11:07:03.930Z,2484
2016-12-31T11:08:09.074Z,2852
2016-12-31T11:09:15.251Z,2504
2016-12-31T11:10:20.463Z,2708
2016-12-31T11:11:25.662Z,2628
2016-12-31T11:12:30.899Z,2444
2016-12-31T11:13:36.165Z,2436
2016-12-31T11:14:42.349Z,2380
2016-12-31T11:15:48.520Z,2424
2016-12-31T11:16:52.745Z,2520
2016-12-31T11:17:56.982Z,2196
2016-12-31T11:19:03.232Z,2412
2016-12-31T11:20:07.231Z,2452
2016-12-31T11:21:11.464Z,2512
2016-12-31T11:22:14.701Z,2436
2016-12-31T11:23:20.300Z,2576
2016-12-31T11:24:25.498Z,2496
2016-12-31T11:25:30.828Z,2484
2016-12-31T11:26:35.066Z,2648
2016-12-31T11:27:40.246Z,2308
2016-12-31T11:28:46.401Z,2288
2016-12-31T11:29:50.683Z,2300
2016-12-31T11:30:55.909Z,2220
2016-12-31T11:32:01.154Z,2316
2016-12-31T11:33:07.372Z,2076
2016-12-31T11:34:13.531Z,2236
2016-12-31T11:35:18.739Z,2168
2016-12-31T11:36:22.967Z,2360
2016-12-31T11:37:29.129Z,2296
2016-12-31T11:38:34.332Z,2156
2016-12-31T11:39:40.509Z,2068
2016-12-31T11:40:46.681Z,2312
2016-12-31T11:41:51.887Z,2008
2016-12-31T11:42:57.077Z,2116
2016-12-31T11:44:02.252Z,2092
2016-12-31T11:45:08.419Z,2340
2016-12-31T11:46:14.654Z,2236
2016-12-31T11:47:20.813Z,2372
2016-12-31T11:48:23.106Z,2324
2016-12-31T11:49:28.319Z,2460
2016-12-31T11:50:33.485Z,2548
2016-12-31T11:51:38.677Z,2672
2016-12-31T11:52:42.927Z,2536
2016-12-31T11:53:46.164Z,2496
2016-12-31T11:54:52.335Z,2448
2016-12-31T11:55:58.526Z,2572
2016-12-31T11:57:02.792Z,2348
2016-12-31T11:58:07.032Z,2408
2016-12-31T11:59:13.213Z,2364
2016-12-31T12:00:18.422Z,2376
2016-12-31T12:01:23.748Z,2548
2016-12-31T12:02:29.077Z,2496
2016-12-31T12:03:35.252Z,2444
2016-12-31T12:04:41.408Z,2492
2016-12-31T12:05:46.602Z,2404
2016-12-31T12:06:51.797Z,2300
2016-12-31T12:07:58.217Z,2636
2016-12-31T12:09:03.435Z,2676
2016-12-31T12:10:09.612Z,2684
2016-12-31T12:11:15.782Z,2484
2016-12-31T12:12:19.013Z,2540
2016-12-31T12:13:23.215Z,2496
2016-12-31T12:14:29.378Z,2420
2016-12-31T12:15:35.537Z,2584
2016-12-31T12:16:39.743Z,2556
2016-12-31T12:17:44.951Z,2548
2016-12-31T12:18:51.106Z,2616
2016-12-31T12:19:57.276Z,2744
2016-12-31T12:21:03.525Z,2820
2016-12-31T12:22:08.723Z,2768
2016-12-31T12:23:14.881Z,2796
2016-12-31T12:24:20.083Z,2416
2016-12-31T12:25:25.306Z,2284
2016-12-31T12:26:31.689Z,2288
2016-12-31T12:27:36.860Z,2388
2016-12-31T12:28:42.059Z,2300
2016-12-31T12:29:47.273Z,2280
2016-12-31T12:30:52.482Z,2256
2016-12-31T12:31:58.643Z,2244
2016-12-31T12:33:03.896Z,2176
2016-12-31T12:34:09.044Z,2360
2016-12-31T12:35:15.268Z,2448
2016-12-31T12:36:20.300Z,2624
2016-12-31T12:37:26.468Z,2636
2016-12-31T12:38:32.629Z,2640
2016-12-31T12:39:38.795Z,2888
2016-12-31T12:40:45.089Z,2652
2016-12-31T12:41:51.212Z,2492
2016-12-31T12:42:55.455Z,2636
2016-12-31T12:44:00.601Z,2628
2016-12-31T12:45:05.797Z,2688
2016-12-31T12:46:10.027Z,2768
2016-12-31T12:47:16.183Z,2528
2016-12-31T12:48:22.345Z,2512
2016-12-31T12:49:26.623Z,2816
2016-12-31T12:50:31.816Z,2508
2016-12-31T12:51:37.978Z,2376
2016-12-31T12:52:44.150Z,2444
2016-12-31T12:53:50.331Z,2444
2016-12-31T12:54:55.578Z,2268
2016-12-31T12:55:59.804Z,2168
2016-12-31T12:57:05.976Z,2224
2016-12-31T12:58:12.145Z,2084
2016-12-31T12:59:18.421Z,2404
2016-12-31T13:00:23.625Z,2356
2016-12-31T13:01:29.790Z,2164
2016-12-31T13:02:34.990Z,2240
2016-12-31T13:03:40.193Z,2040
2016-12-31T13:04:44.445Z,2148
2016-12-31T13:05:48.734Z,2004
2016-12-31T13:06:54.901Z,2028
2016-12-31T13:08:00.098Z,2072
2016-12-31T13:09:03.341Z,1932
2016-12-31T13:10:09.664Z,2000
2016-12-31T13:11:13.866Z,2068
2016-12-31T13:12:20.074Z,2064
2016-12-31T13:13:26.379Z,1944
2016-12-31T13:14:32.502Z,2032
2016-12-31T13:15:36.696Z,2008
2016-12-31T13:16:40.953Z,2032
2016-12-31T13:17:46.153Z,2136
2016-12-31T13:18:51.349Z,1992
2016-12-31T13:19:55.572Z,2192
2016-12-31T13:21:01.747Z,1944
2016-12-31T13:22:05.995Z,1968
2016-12-31T13:23:10.190Z,2044
2016-12-31T13:24:15.369Z,1976
2016-12-31T13:25:21.574Z,1928
2016-12-31T13:26:27.950Z,1984
2016-12-31T13:27:34.260Z,1712
2016-12-31T13:28:37.263Z,1748
2016-12-31T13:29:43.423Z,1888
2016-12-31T13:30:49.666Z,1868
2016-12-31T13:31:52.929Z,1760
2016-12-31T13:32:59.152Z,1648
2016-12-31T13:34:04.403Z,1760
2016-12-31T13:35:09.672Z,1596
2016-12-31T13:36:15.913Z,1720
2016-12-31T13:37:22.150Z,1724
2016-12-31T13:38:28.332Z,1532
2016-12-31T13:39:34.505Z,1608
2016-12-31T13:40:39.695Z,1480
2016-12-31T13:41:44.924Z,1608
2016-12-31T13:42:49.099Z,1572
2016-12-31T13:43:54.326Z,1572
2016-12-31T13:45:00.489Z,1464
2016-12-31T13:46:05.687Z,1432
2016-12-31T13:47:08.960Z,1516
2016-12-31T13:48:15.133Z,1440
2016-12-31T13:49:20.329Z,1400
2016-12-31T13:50:25.251Z,1372
2016-12-31T13:51:31.411Z,1364
2016-12-31T13:52:37.576Z,1392
2016-12-31T13:53:42.950Z,1340
2016-12-31T13:54:49.121Z,1372
2016-12-31T13:55:54.320Z,1224
2016-12-31T13:57:00.487Z,1380
2016-12-31T13:58:05.694Z,1288
2016-12-31T13:59:10.884Z,1356
2016-12-31T14:00:16.085Z,1432
2016-12-31T14:01:21.285Z,1300
2016-12-31T14:02:27.443Z,1232
2016-12-31T14:03:32.642Z,1220
2016-12-31T14:04:38.819Z,1224
2016-12-31T14:05:44.071Z,1180
2016-12-31T14:06:48.304Z,1196
2016-12-31T14:07:52.538Z,1208
2016-12-31T14:08:57.736Z,1112
2016-12-31T14:10:01.965Z,1108
2016-12-31T14:11:07.157Z,1124
2016-12-31T14:12:09.427Z,1136
2016-12-31T14:13:12.711Z,1096
2016-12-31T14:14:15.942Z,1004
2016-12-31T14:15:20.145Z,1060
2016-12-31T14:16:26.312Z,1040
2016-12-31T14:17:32.487Z,960
2016-12-31T14:18:38.641Z,1028
2016-12-31T14:19:43.806Z,944
2016-12-31T14:20:48.998Z,1012
2016-12-31T14:21:54.166Z,964
2016-12-31T14:22:59.333Z,944
2016-12-31T14:24:05.504Z,964
2016-12-31T14:25:10.705Z,948
2016-12-31T14:26:15.958Z,828
2016-12-31T14:27:22.143Z,780
2016-12-31T14:28:27.352Z,856
2016-12-31T14:29:32.553Z,784
2016-12-31T14:30:38.767Z,748
2016-12-31T14:31:44.928Z,732
2016-12-31T14:32:50.129Z,708
2016-12-31T14:33:54.332Z,644
2016-12-31T14:34:57.576Z,636
2016-12-31T14:36:02.755Z,616
2016-12-31T14:37:08.919Z,616
2016-12-31T14:38:14.102Z,596
2016-12-31T14:39:19.353Z,588
2016-12-31T14:40:25.524Z,524
2016-12-31T14:41:30.691Z,524
2016-12-31T14:42:35.963Z,496
2016-12-31T14:43:41.156Z,492
2016-12-31T14:44:46.360Z,484
2016-12-31T14:45:51.557Z,448
2016-12-31T14:46:57.718Z,436
2016-12-31T14:48:03.890Z,432
2016-12-31T14:49:09.095Z,424
2016-12-31T14:50:14.294Z,380
2016-12-31T14:51:20.448Z,380
2016-12-31T14:52:26.622Z,364
2016-12-31T14:53:30.854Z,372
2016-12-31T14:54:36.030Z,380
2016-12-31T14:55:42.295Z,348
2016-12-31T14:56:47.489Z,336
2016-12-31T14:57:53.663Z,324
2016-12-31T14:58:56.954Z,296
2016-12-31T15:00:03.114Z,284
2016-12-31T15:01:07.351Z,272
2016-12-31T15:02:11.540Z,260
2016-12-31T15:03:14.773Z,244
2016-12-31T15:04:19.973Z,248
2016-12-31T15:05:26.140Z,240
2016-12-31T15:06:32.298Z,216
2016-12-31T15:07:38.493Z,196
2016-12-31T15:08:43.685Z,184
2016-12-31T15:09:48.884Z,180
2016-12-31T15:10:54.056Z,168
2016-12-31T15:11:58.256Z,164
2016-12-31T15:13:03.425Z,156
2016-12-31T15:14:07.628Z,152
2016-12-31T15:15:13.955Z,144
2016-12-31T15:16:18.137Z,136
2016-12-31T15:17:24.300Z,132
2016-12-31T15:18:29.514Z,120
2016-12-31T15:19:35.733Z,116
2016-12-31T15:20:41.893Z,112
2016-12-31T15:21:48.060Z,108
2016-12-31T15:22:53.270Z,104
2016-12-31T15:23:59.513Z,100